PWSweather.com
Personal Weather Stations
Station Observations
IMAZOWIE6
WarszawaPL

WarszawaPL

Lat: 52.27957, Lon: 21.05489

Elevation: 100

Station Type: WS1080

http://stacjapogody.waw.pl/

High Low Average
Temperature 46.6°F8.1°C 32.0°F0.0°C 41.0°F5.0°C
Dew Point -168.1°F-111.2°C -169.6°F-112.0°C -168.7°F-111.5°C
Winds 4.0 mph 6.4 kmh Calm Calm 1.0 mph N1.6 kmh N
Wind Gusts 8.2 mph13.2 kmh -- 4.0 mph6.4 kmh
Humidity - - -
Pressure 28.99 in981.7 mb 28.88 in978.0 mb -
Precipitation 0.00 in0.0 mm - -
Hour Temp Dew Point Humidity Winds Wind Gusts Pressure Precip Precip Rate Daily Precip Total
12:05 AM 32.0°F0.0°C -169.6°F-112.0°C - 2.0 mph N3.2 kmh N 6.2 mph10.0 kmh 28.92 in979.3 mb 0.00 in0.0 mm 0.00 in0.0 mm 0.00 in0.0 mm
12:20 AM 32.2°F0.1°C -169.6°F-112.0°C - 2.0 mph N3.2 kmh N 7.4 mph11.9 kmh 28.91 in979.0 mb 0.00 in0.0 mm 0.00 in0.0 mm 0.00 in0.0 mm
12:35 AM 32.2°F0.1°C -169.6°F-112.0°C - 0.6 mph N1.0 kmh N 4.0 mph6.4 kmh 28.91 in979.0 mb 0.00 in0.0 mm 0.00 in0.0 mm 0.00 in0.0 mm
12:50 AM 32.5°F0.3°C -169.5°F-111.9°C - 1.4 mph N2.3 kmh N 5.4 mph8.7 kmh 28.91 in979.0 mb 0.00 in0.0 mm 0.00 in0.0 mm 0.00 in0.0 mm
01:05 AM 32.7°F0.4°C -169.5°F-111.9°C - 0.6 mph N1.0 kmh N 2.8 mph4.5 kmh 28.91 in979.0 mb 0.00 in0.0 mm 0.00 in0.0 mm 0.00 in0.0 mm
01:20 AM 32.9°F0.5°C -169.5°F-111.9°C - 0.6 mph N1.0 kmh N 4.8 mph7.7 kmh 28.91 in979.0 mb 0.00 in0.0 mm 0.00 in0.0 mm 0.00 in0.0 mm
01:35 AM 33.3°F0.7°C -169.5°F-111.9°C - Calm Calm 0.6 mph1.0 kmh 28.90 in978.7 mb 0.00 in0.0 mm 0.00 in0.0 mm 0.00 in0.0 mm
01:50 AM 33.4°F0.8°C -169.5°F-111.9°C - 1.4 mph N2.3 kmh N 4.8 mph7.7 kmh 28.90 in978.7 mb 0.00 in0.0 mm 0.00 in0.0 mm 0.00 in0.0 mm
02:05 AM 33.4°F0.8°C -169.5°F-111.9°C - 1.4 mph N2.3 kmh N 5.4 mph8.7 kmh 28.89 in978.3 mb 0.00 in0.0 mm 0.00 in0.0 mm 0.00 in0.0 mm
02:20 AM 33.8°F1.0°C -169.4°F-111.9°C - Calm Calm 3.4 mph5.5 kmh 28.90 in978.7 mb 0.00 in0.0 mm 0.00 in0.0 mm 0.00 in0.0 mm
02:35 AM 34.2°F1.2°C -169.4°F-111.9°C - 0.6 mph N1.0 kmh N 3.4 mph5.5 kmh 28.90 in978.7 mb 0.00 in0.0 mm 0.00 in0.0 mm 0.00 in0.0 mm
02:50 AM 34.5°F1.4°C -169.3°F-111.8°C - 0.6 mph N1.0 kmh N 4.8 mph7.7 kmh 28.90 in978.7 mb 0.00 in0.0 mm 0.00 in0.0 mm 0.00 in0.0 mm
03:05 AM 34.9°F1.6°C -169.3°F-111.8°C - 1.4 mph N2.3 kmh N 5.4 mph8.7 kmh 28.90 in978.7 mb 0.00 in0.0 mm 0.00 in0.0 mm 0.00 in0.0 mm
03:20 AM 35.1°F1.7°C -169.3°F-111.8°C - 2.0 mph N3.2 kmh N 6.2 mph10.0 kmh 28.89 in978.3 mb 0.00 in0.0 mm 0.00 in0.0 mm 0.00 in0.0 mm
03:35 AM 35.4°F1.9°C -169.3°F-111.8°C - 1.4 mph N2.3 kmh N 5.4 mph8.7 kmh 28.89 in978.3 mb 0.00 in0.0 mm 0.00 in0.0 mm 0.00 in0.0 mm
04:50 AM 36.7°F2.6°C -169.1°F-111.7°C - 1.4 mph N2.3 kmh N 5.4 mph8.7 kmh 28.88 in978.0 mb 0.00 in0.0 mm 0.00 in0.0 mm 0.00 in0.0 mm
07:35 AM 39.6°F4.2°C -168.8°F-111.6°C - 3.4 mph N5.5 kmh N 6.2 mph10.0 kmh 28.91 in979.0 mb 0.00 in0.0 mm 0.00 in0.0 mm 0.00 in0.0 mm
07:50 AM 40.3°F4.6°C -168.8°F-111.6°C - 3.4 mph N5.5 kmh N 6.2 mph10.0 kmh 28.92 in979.3 mb 0.00 in0.0 mm 0.00 in0.0 mm 0.00 in0.0 mm
08:05 AM 41.0°F5.0°C -168.7°F-111.5°C - 2.8 mph N4.5 kmh N 6.2 mph10.0 kmh 28.92 in979.3 mb 0.00 in0.0 mm 0.00 in0.0 mm 0.00 in0.0 mm
08:20 AM 41.2°F5.1°C -168.7°F-111.5°C - 4.0 mph N6.4 kmh N 6.8 mph10.9 kmh 28.93 in979.7 mb 0.00 in0.0 mm 0.00 in0.0 mm 0.00 in0.0 mm
08:35 AM 40.5°F4.7°C -168.8°F-111.6°C - 3.4 mph N5.5 kmh N 5.4 mph8.7 kmh 28.92 in979.3 mb 0.00 in0.0 mm 0.00 in0.0 mm 0.00 in0.0 mm
08:50 AM 40.6°F4.8°C -168.7°F-111.5°C - 0.6 mph N1.0 kmh N 3.4 mph5.5 kmh 28.92 in979.3 mb 0.00 in0.0 mm 0.00 in0.0 mm 0.00 in0.0 mm
09:05 AM 40.5°F4.7°C -168.8°F-111.6°C - 2.0 mph N3.2 kmh N 6.2 mph10.0 kmh 28.92 in979.3 mb 0.00 in0.0 mm 0.00 in0.0 mm 0.00 in0.0 mm
09:20 AM 40.3°F4.6°C -168.8°F-111.6°C - 2.8 mph N4.5 kmh N 4.0 mph6.4 kmh 28.92 in979.3 mb 0.00 in0.0 mm 0.00 in0.0 mm 0.00 in0.0 mm
09:50 AM 40.8°F4.9°C -168.7°F-111.5°C - 3.4 mph N5.5 kmh N 6.8 mph10.9 kmh 28.94 in980.0 mb 0.00 in0.0 mm 0.00 in0.0 mm 0.00 in0.0 mm
10:05 AM 41.2°F5.1°C -168.7°F-111.5°C - 2.0 mph N3.2 kmh N 4.0 mph6.4 kmh 28.94 in980.0 mb 0.01 in0.3 mm 0.02 in0.5 mm 0.01 in0.3 mm
10:15 AM 41.4°F5.2°C -168.7°F-111.5°C - 2.8 mph N4.5 kmh N 4.8 mph7.7 kmh 28.94 in980.0 mb 0.00 in0.0 mm 0.00 in0.0 mm 0.01 in0.3 mm
10:35 AM 41.4°F5.2°C -168.7°F-111.5°C - 1.4 mph N2.3 kmh N 2.8 mph4.5 kmh 28.95 in980.4 mb 0.00 in0.0 mm 0.00 in0.0 mm 0.01 in0.3 mm
10:50 AM 41.7°F5.4°C -168.6°F-111.4°C - Calm Calm 2.0 mph3.2 kmh 28.96 in980.7 mb 0.00 in0.0 mm 0.00 in0.0 mm 0.01 in0.3 mm
11:05 AM 42.1°F5.6°C -168.6°F-111.4°C - 0.6 mph N1.0 kmh N 4.0 mph6.4 kmh 28.97 in981.0 mb 0.00 in0.0 mm 0.00 in0.0 mm 0.01 in0.3 mm
11:20 AM 42.3°F5.7°C -168.6°F-111.4°C - 0.6 mph N1.0 kmh N 2.8 mph4.5 kmh 28.96 in980.7 mb 0.00 in0.0 mm 0.00 in0.0 mm 0.01 in0.3 mm
11:35 AM 42.4°F5.8°C -168.6°F-111.4°C - Calm Calm 0.6 mph1.0 kmh 28.96 in980.7 mb 0.00 in0.0 mm 0.00 in0.0 mm 0.01 in0.3 mm
11:45 AM 42.6°F5.9°C -168.5°F-111.4°C - Calm Calm 2.8 mph4.5 kmh 28.95 in980.4 mb 0.00 in0.0 mm 0.00 in0.0 mm 0.01 in0.3 mm
12:00 PM 43.2°F6.2°C -168.5°F-111.4°C - 0.6 mph N1.0 kmh N 2.8 mph4.5 kmh 28.95 in980.4 mb 0.00 in0.0 mm 0.00 in0.0 mm 0.01 in0.3 mm
12:15 PM 43.7°F6.5°C -168.4°F-111.3°C - 2.0 mph N3.2 kmh N 4.8 mph7.7 kmh 28.95 in980.4 mb 0.00 in0.0 mm 0.00 in0.0 mm 0.01 in0.3 mm
12:35 PM 44.1°F6.7°C -168.4°F-111.3°C - Calm Calm 3.4 mph5.5 kmh 28.95 in980.4 mb 0.00 in0.0 mm 0.00 in0.0 mm 0.01 in0.3 mm
12:45 PM 44.4°F6.9°C -168.4°F-111.3°C - Calm Calm 2.0 mph3.2 kmh 28.95 in980.4 mb 0.00 in0.0 mm 0.00 in0.0 mm 0.01 in0.3 mm
01:00 PM 44.4°F6.9°C -168.4°F-111.3°C - Calm Calm 2.0 mph3.2 kmh 28.95 in980.4 mb 0.00 in0.0 mm 0.00 in0.0 mm 0.01 in0.3 mm
01:20 PM 44.2°F6.8°C -168.4°F-111.3°C - Calm Calm 1.4 mph2.3 kmh 28.95 in980.4 mb 0.00 in0.0 mm 0.00 in0.0 mm 0.01 in0.3 mm
01:35 PM 43.9°F6.6°C -168.4°F-111.3°C - Calm Calm 1.4 mph2.3 kmh 28.95 in980.4 mb 0.00 in0.0 mm 0.00 in0.0 mm 0.01 in0.3 mm
01:45 PM 43.5°F6.4°C -168.4°F-111.3°C - Calm Calm 1.4 mph2.3 kmh 28.96 in980.7 mb 0.00 in0.0 mm 0.00 in0.0 mm 0.01 in0.3 mm
02:05 PM 42.8°F6.0°C -168.5°F-111.4°C - Calm Calm -- 28.97 in981.0 mb 0.00 in0.0 mm 0.00 in0.0 mm 0.01 in0.3 mm
02:20 PM 42.6°F5.9°C -168.5°F-111.4°C - 1.4 mph N2.3 kmh N 3.4 mph5.5 kmh 28.98 in981.4 mb 0.00 in0.0 mm 0.00 in0.0 mm 0.01 in0.3 mm
02:35 PM 42.4°F5.8°C -168.6°F-111.4°C - 0.6 mph N1.0 kmh N 2.8 mph4.5 kmh 28.98 in981.4 mb 0.00 in0.0 mm 0.00 in0.0 mm 0.01 in0.3 mm
02:50 PM 42.8°F6.0°C -168.5°F-111.4°C - 0.6 mph N1.0 kmh N 4.8 mph7.7 kmh 28.98 in981.4 mb 0.00 in0.0 mm 0.00 in0.0 mm 0.01 in0.3 mm
03:00 PM 42.8°F6.0°C -168.5°F-111.4°C - 1.4 mph N2.3 kmh N 4.0 mph6.4 kmh 28.98 in981.4 mb 0.00 in0.0 mm 0.00 in0.0 mm 0.01 in0.3 mm
03:15 PM 42.8°F6.0°C -168.5°F-111.4°C - 0.6 mph N1.0 kmh N 2.0 mph3.2 kmh 28.98 in981.4 mb 0.00 in0.0 mm 0.00 in0.0 mm 0.01 in0.3 mm
03:30 PM 42.8°F6.0°C -168.5°F-111.4°C - Calm Calm 2.0 mph3.2 kmh 28.97 in981.0 mb 0.00 in0.0 mm 0.00 in0.0 mm 0.01 in0.3 mm
03:45 PM 42.8°F6.0°C -168.5°F-111.4°C - 0.6 mph N1.0 kmh N 3.4 mph5.5 kmh 28.97 in981.0 mb 0.00 in0.0 mm 0.00 in0.0 mm 0.01 in0.3 mm
04:05 PM 42.6°F5.9°C -168.5°F-111.4°C - 0.6 mph N1.0 kmh N 2.0 mph3.2 kmh 28.98 in981.4 mb 0.00 in0.0 mm 0.00 in0.0 mm 0.01 in0.3 mm
04:20 PM 42.8°F6.0°C -168.5°F-111.4°C - 2.8 mph N4.5 kmh N 5.4 mph8.7 kmh 28.98 in981.4 mb 0.00 in0.0 mm 0.00 in0.0 mm 0.01 in0.3 mm
04:30 PM 43.0°F6.1°C -168.5°F-111.4°C - 2.0 mph N3.2 kmh N 4.8 mph7.7 kmh 28.99 in981.7 mb 0.00 in0.0 mm 0.00 in0.0 mm 0.01 in0.3 mm
04:50 PM 42.8°F6.0°C -168.5°F-111.4°C - Calm Calm 2.8 mph4.5 kmh 28.98 in981.4 mb 0.00 in0.0 mm 0.00 in0.0 mm 0.01 in0.3 mm
05:05 PM 42.8°F6.0°C -168.5°F-111.4°C - 0.6 mph N1.0 kmh N 4.0 mph6.4 kmh 28.98 in981.4 mb 0.00 in0.0 mm 0.00 in0.0 mm 0.01 in0.3 mm
05:20 PM 42.4°F5.8°C -168.6°F-111.4°C - 1.4 mph N2.3 kmh N 4.0 mph6.4 kmh 28.98 in981.4 mb 0.00 in0.0 mm 0.00 in0.0 mm 0.01 in0.3 mm
05:30 PM 42.4°F5.8°C -168.6°F-111.4°C - 2.8 mph N4.5 kmh N 7.4 mph11.9 kmh 28.99 in981.7 mb 0.00 in0.0 mm 0.00 in0.0 mm 0.01 in0.3 mm
05:50 PM 42.1°F5.6°C -168.6°F-111.4°C - 0.6 mph N1.0 kmh N 4.0 mph6.4 kmh 28.98 in981.4 mb 0.00 in0.0 mm 0.00 in0.0 mm 0.01 in0.3 mm
06:00 PM 41.9°F5.5°C -168.6°F-111.4°C - 1.4 mph N2.3 kmh N 4.8 mph7.7 kmh 28.98 in981.4 mb 0.00 in0.0 mm 0.00 in0.0 mm 0.01 in0.3 mm
06:20 PM 41.9°F5.5°C -168.6°F-111.4°C - 0.6 mph N1.0 kmh N 4.0 mph6.4 kmh 28.97 in981.0 mb 0.00 in0.0 mm 0.00 in0.0 mm 0.01 in0.3 mm
06:30 PM 41.7°F5.4°C -168.6°F-111.4°C - 0.6 mph N1.0 kmh N 3.4 mph5.5 kmh 28.97 in981.0 mb 0.00 in0.0 mm 0.00 in0.0 mm 0.01 in0.3 mm
06:45 PM 41.7°F5.4°C -168.6°F-111.4°C - 0.6 mph N1.0 kmh N 2.8 mph4.5 kmh 28.97 in981.0 mb 0.00 in0.0 mm 0.00 in0.0 mm 0.01 in0.3 mm
07:00 PM 41.5°F5.3°C -168.6°F-111.4°C - Calm Calm 2.8 mph4.5 kmh 28.96 in980.7 mb 0.00 in0.0 mm 0.00 in0.0 mm 0.01 in0.3 mm
07:15 PM 41.5°F5.3°C -168.6°F-111.4°C - Calm Calm 6.8 mph10.9 kmh 28.95 in980.4 mb 0.00 in0.0 mm 0.00 in0.0 mm 0.01 in0.3 mm
07:35 PM 41.5°F5.3°C -168.6°F-111.4°C - 1.4 mph N2.3 kmh N 2.8 mph4.5 kmh 28.96 in980.7 mb 0.00 in0.0 mm 0.00 in0.0 mm 0.01 in0.3 mm
07:45 PM 41.5°F5.3°C -168.6°F-111.4°C - 0.6 mph N1.0 kmh N 3.4 mph5.5 kmh 28.96 in980.7 mb 0.00 in0.0 mm 0.00 in0.0 mm 0.01 in0.3 mm
08:00 PM 41.9°F5.5°C -168.6°F-111.4°C - 0.6 mph N1.0 kmh N 2.8 mph4.5 kmh 28.96 in980.7 mb 0.00 in0.0 mm 0.00 in0.0 mm 0.01 in0.3 mm
08:15 PM 42.1°F5.6°C -168.6°F-111.4°C - 1.4 mph N2.3 kmh N 4.0 mph6.4 kmh 28.96 in980.7 mb 0.00 in0.0 mm 0.00 in0.0 mm 0.01 in0.3 mm
08:30 PM 42.6°F5.9°C -168.5°F-111.4°C - 1.4 mph N2.3 kmh N 4.0 mph6.4 kmh 28.96 in980.7 mb 0.00 in0.0 mm 0.00 in0.0 mm 0.01 in0.3 mm
08:45 PM 43.2°F6.2°C -168.5°F-111.4°C - 0.6 mph N1.0 kmh N 3.4 mph5.5 kmh 28.96 in980.7 mb 0.00 in0.0 mm 0.00 in0.0 mm 0.01 in0.3 mm
09:00 PM 43.5°F6.4°C -168.4°F-111.3°C - Calm Calm 2.8 mph4.5 kmh 28.95 in980.4 mb 0.00 in0.0 mm 0.00 in0.0 mm 0.01 in0.3 mm
09:20 PM 43.9°F6.6°C -168.4°F-111.3°C - 0.6 mph N1.0 kmh N 2.0 mph3.2 kmh 28.96 in980.7 mb 0.00 in0.0 mm 0.00 in0.0 mm 0.01 in0.3 mm
09:30 PM 44.2°F6.8°C -168.4°F-111.3°C - 1.4 mph N2.3 kmh N 8.2 mph13.2 kmh 28.97 in981.0 mb 0.00 in0.0 mm 0.00 in0.0 mm 0.01 in0.3 mm
09:50 PM 44.6°F7.0°C -168.3°F-111.3°C - 2.0 mph N3.2 kmh N 6.8 mph10.9 kmh 28.96 in980.7 mb 0.00 in0.0 mm 0.00 in0.0 mm 0.01 in0.3 mm
10:05 PM 45.1°F7.3°C -168.3°F-111.3°C - 1.4 mph N2.3 kmh N 5.4 mph8.7 kmh 28.96 in980.7 mb 0.00 in0.0 mm 0.00 in0.0 mm 0.01 in0.3 mm
10:15 PM 45.5°F7.5°C -168.3°F-111.3°C - 0.6 mph N1.0 kmh N 3.4 mph5.5 kmh 28.95 in980.4 mb 0.00 in0.0 mm 0.00 in0.0 mm 0.01 in0.3 mm
10:30 PM 45.7°F7.6°C -168.2°F-111.2°C - 0.6 mph N1.0 kmh N 6.8 mph10.9 kmh 28.95 in980.4 mb 0.00 in0.0 mm 0.00 in0.0 mm 0.01 in0.3 mm
10:45 PM 45.9°F7.7°C -168.2°F-111.2°C - 2.0 mph N3.2 kmh N 4.8 mph7.7 kmh 28.95 in980.4 mb 0.00 in0.0 mm 0.00 in0.0 mm 0.01 in0.3 mm
11:00 PM 46.2°F7.9°C -168.2°F-111.2°C - 0.6 mph N1.0 kmh N 4.0 mph6.4 kmh 28.95 in980.4 mb 0.00 in0.0 mm 0.00 in0.0 mm 0.01 in0.3 mm
11:20 PM 46.2°F7.9°C -168.2°F-111.2°C - 0.6 mph N1.0 kmh N 4.0 mph6.4 kmh 28.95 in980.4 mb 0.00 in0.0 mm 0.00 in0.0 mm 0.01 in0.3 mm
11:30 PM 46.4°F8.0°C -168.2°F-111.2°C - 1.4 mph N2.3 kmh N 4.0 mph6.4 kmh 28.95 in980.4 mb 0.00 in0.0 mm 0.00 in0.0 mm 0.01 in0.3 mm
11:50 PM 46.6°F8.1°C -168.1°F-111.2°C - 1.4 mph N2.3 kmh N 4.0 mph6.4 kmh 28.94 in980.0 mb 0.00 in0.0 mm 0.00 in0.0 mm 0.01 in0.3 mm